Granite Shoals, Texas
Current Conditions -  °F | °C
As of 4:15 PM on Friday 24 Oct 2014 (Local Time) from KDZB Reporting Station
Scattered Clouds Scattered Clouds  
Wind Chill: 85°   Ceiling: Unl
Heat Index: 85°   Visibility: 10mi
Dew Point: 56°   Wind: 0mph
Humidity: 36%   Direction: NA
Pressure: 30.1"   Gusts: NA
Location:  30.5925°N, 98.2219°W
Report Text: KDZB 242115Z AUTO 00000KT 10SM SCT060 30/13 A3010 RMK AO2 T02960131
Loading
Personal Weather Stations






























Interactive Weather Map
Tropical Storm Tracking
New forecast layout! Learn more

10-Day Weather Forecast

Advertisements
Track Severe Weather on mobile